Flight Track Log - Related Links

Times and Time Zones

All times are in EDT time to prevent confusion due to time zone crossing. See the CHH7207 flight status page for this flight to view local times or setup timezone preferences in your user account.

Time Position Orientation Groundspeed Altitude Reporting Facility
EDT Latitude Longitude Course Direction KTS MPH feet Rate Location/Type
Fri 10:41:00 AM 39.0455 117.3953 154° Southeast  Level Estimated
Fri 10:42:00 AM 38.9666 117.4443 154° Southeast  Level Estimated
Fri 10:43:00 AM 38.8876 117.4932 154° Southeast  Level Estimated
Fri 10:44:00 AM 38.8087 117.5420 154° Southeast  Level Estimated
Fri 10:45:00 AM 38.7297 117.5906 154° Southeast  Level Estimated
Fri 10:46:00 AM 38.6507 117.6392 154° Southeast  Level Estimated
Fri 10:47:00 AM 38.5717 117.6877 154° Southeast  Level Estimated
Fri 10:48:00 AM 38.4927 117.7360 154° Southeast  Level Estimated
Fri 10:49:00 AM 38.4136 117.7842 154° Southeast  Level Estimated
Fri 10:50:00 AM 38.3346 117.8324 154° Southeast  Level Estimated
Fri 10:51:00 AM 38.2555 117.8804 155° Southeast  Level Estimated
Fri 10:52:00 AM 38.1764 117.9283 155° Southeast  Level Estimated
Fri 10:53:00 AM 38.0972 117.9762 155° Southeast  Level Estimated
Fri 10:54:00 AM 38.0181 118.0239 155° Southeast  Level Estimated
Fri 10:55:00 AM 37.9389 118.0715 155° Southeast  Level Estimated
Fri 10:56:00 AM 37.8597 118.1190 155° Southeast  Level Estimated
Fri 10:57:00 AM 37.7805 118.1664 155° Southeast  Level Estimated
Fri 10:58:00 AM 37.7013 118.2137 155° Southeast  Level Estimated
Fri 10:59:00 AM 37.6142 118.2656 155° Southeast  Level Estimated
Fri 11:00:00 AM 37.5271 118.3174 155° Southeast  Level Estimated
Fri 11:01:00 AM 37.4400 118.3690 155° Southeast  Level Estimated
Fri 11:02:00 AM 37.3528 118.4205 155° Southeast  Level Estimated
Fri 11:03:00 AM 37.2657 118.4719 155° Southeast  Level Estimated
Fri 11:04:00 AM 37.1785 118.5232 155° Southeast  Level Estimated
Fri 11:05:00 AM 37.0913 118.5743 155° Southeast  Level Estimated
Fri 11:06:00 AM 37.0040 118.6254 155° Southeast  Level Estimated
Fri 11:07:00 AM 36.9168 118.6763 155° Southeast  Level Estimated
Fri 11:08:00 AM 36.8295 118.7271 155° Southeast  Level Estimated
Fri 11:09:00 AM 36.7422 118.7778 155° Southeast  Level Estimated
Fri 11:10:00 AM 36.6549 118.8283 155° Southeast  Level Estimated
Fri 11:11:00 AM 36.5675 118.8788 155° Southeast  Level Estimated
Fri 11:12:00 AM 36.4802 118.9292 155° Southeast  Level Estimated
Fri 11:13:00 AM 36.3928 118.9794 155° Southeast  Level Estimated
Fri 11:14:00 AM 36.3054 119.0295 155° Southeast  Level Estimated
Fri 11:15:00 AM 36.2179 119.0795 155° Southeast  Level Estimated
Fri 11:16:00 AM 36.1305 119.1294 155° Southeast  Level Estimated
Fri 11:17:00 AM 36.0430 119.1792 155° Southeast  Level Estimated
Fri 11:18:00 AM 35.9555 119.2289 155° Southeast  Level Estimated
Fri 11:19:00 AM 35.8680 119.2784 155° Southeast  Level Estimated
Fri 11:20:00 AM 35.7805 119.3279 155° Southeast  Level Estimated
Fri 11:21:00 AM 35.6929 119.3772 155° Southeast  Level Estimated
Fri 11:22:00 AM 35.6054 119.4265 155° Southeast  Level Estimated
Fri 11:23:00 AM 35.5178 119.4756 155° Southeast  Level Estimated
Fri 11:24:00 AM 35.4302 119.5246 155° Southeast  Level Estimated
Fri 11:25:00 AM 35.3425 119.5735 156° South  Level Estimated
Fri 11:26:00 AM 35.2549 119.6223 156° South  Level Estimated
Fri 11:27:00 AM 35.1672 119.6710 156° South  Level Estimated
Fri 11:28:00 AM 35.0795 119.7196 156° South  Level Estimated
Fri 11:29:00 AM 34.9918 119.7681 156° South  Level Estimated
Fri 11:30:00 AM 34.9041 119.8165 156° South  Level Estimated
Fri 11:31:00 AM 34.8163 119.8648 156° South  Level Estimated
Fri 11:32:00 AM 34.7286 119.9130 156° South  Level Estimated
Fri 11:33:00 AM 34.6408 119.9611 156° South  Level Estimated
Fri 11:34:00 AM 34.5530 120.0091 156° South  Level Estimated
Fri 11:35:00 AM 34.4651 120.0570 156° South  Level Estimated
Fri 11:36:00 AM 34.3773 120.1047 156° South  Level Estimated
Fri 11:37:00 AM 34.2895 120.1524 156° South  Level Estimated
Fri 11:38:00 AM 34.2016 120.2000 156° South  Level Estimated
Fri 11:39:00 AM 34.1137 120.2475 156° South  Level Estimated
Fri 11:40:00 AM 34.0257 120.2949 156° South  Level Estimated
Fri 11:41:00 AM 33.9378 120.3421 156° South  Level Estimated
Fri 11:42:00 AM 33.8499 120.3893 156° South  Level Estimated
Fri 11:43:00 AM 33.7619 120.4364 156° South  Level Estimated
Fri 11:44:00 AM 33.6739 120.4834 156° South  Level Estimated
Fri 11:45:00 AM 33.5859 120.5303 156° South  Level Estimated
Fri 11:46:00 AM 33.4979 120.5771 156° South  Level Estimated
Fri 11:47:00 AM 33.4099 120.6238 156° South  Level Estimated
Fri 11:48:00 AM 33.3218 120.6704 156° South  Level Estimated
Fri 11:49:00 AM 33.2337 120.7169 156° South  Level Estimated
Fri 11:50:00 AM 33.1456 120.7634 156° South  Level Estimated
Fri 11:51:00 AM 33.0575 120.8097 156° South  Level Estimated
Fri 11:52:00 AM 32.9694 120.8559 156° South  Level Estimated
Fri 11:53:00 AM 32.8812 120.9021 156° South  Level Estimated
Fri 11:54:00 AM 32.7931 120.9481 156° South  Level Estimated
Fri 11:55:00 AM 32.7049 120.9941 156° South  Level Estimated
Fri 11:56:00 AM 32.6167 121.0400 156° South  Level Estimated
Fri 11:57:00 AM 32.5285 121.0857 156° South  Level Estimated
Fri 11:58:00 AM 32.4403 121.1314 156° South  Level Estimated
Fri 11:59:00 AM 32.3520 121.1770 156° South  Level Estimated
Fri 12:00:00 PM 32.2638 121.2225 156° South  Level Estimated
Fri 12:01:00 PM 32.1755 121.2680 156° South  Level Estimated
Fri 12:02:00 PM 32.0872 121.3133 156° South  Level Estimated
Fri 12:03:00 PM 31.9989 121.3586 157° South  Level Estimated
Fri 12:04:00 PM 31.9106 121.4037 157° South  Level Estimated
Fri 12:05:00 PM 31.8222 121.4488 157° South  Level Estimated
Fri 12:06:00 PM 31.7339 121.4938 157° South  Level Estimated
Fri 12:07:00 PM 31.6455 121.5387 157° South  Level Estimated
Fri 12:08:00 PM 31.5571 121.5835 157° South  Level Estimated
Fri 12:09:00 PM 31.4687 121.6282 157° South  Level Estimated
Fri 12:10:00 PM 31.3803 121.6729 157° South  Level Estimated
Fri 12:11:00 PM 31.2919 121.7175 157° South  Level Estimated
Fri 12:12:00 PM 31.2034 121.7619 157° South  Level Estimated
Fri 12:13:00 PM 31.1428 121.7924 157° South  Level Estimated
Fri 12:14:00 PM 31.1428 121.7924 221° Southwest  Level Estimated
Fri 12:15:00 PM 31.1428 121.7924 221° Southwest  Level Estimated
Fri 12:16:00 PM 31.1428 121.7924 221° Southwest  Level Estimated
Fri 12:17:00 PM 31.1428 121.7924 221° Southwest  Level Estimated

Login

Don't have an account? Register now (free) for customized features, flight alerts, and more!